sensor_id;sensor_type;location;lat;lon;timestamp;P1;durP1;ratioP1;P2;durP2;ratioP2
32790;SDS011;19143;59.322;14.502;2023-09-18T00:00:13;0.77;;;0.70;;
32790;SDS011;19143;59.322;14.502;2023-09-18T00:02:40;1.03;;;0.70;;
32790;SDS011;19143;59.322;14.502;2023-09-18T00:05:08;0.70;;;0.67;;
32790;SDS011;19143;59.322;14.502;2023-09-18T00:07:35;0.87;;;0.87;;
32790;SDS011;19143;59.322;14.502;2023-09-18T00:10:02;1.37;;;0.80;;
32790;SDS011;19143;59.322;14.502;2023-09-18T00:12:28;0.90;;;0.90;;
32790;SDS011;19143;59.322;14.502;2023-09-18T00:14:55;0.80;;;0.80;;
32790;SDS011;19143;59.322;14.502;2023-09-18T00:17:22;1.83;;;0.80;;
32790;SDS011;19143;59.322;14.502;2023-09-18T00:19:49;1.40;;;0.93;;
32790;SDS011;19143;59.322;14.502;2023-09-18T00:22:18;3.47;;;0.70;;
32790;SDS011;19143;59.322;14.502;2023-09-18T00:24:44;0.87;;;0.87;;
32790;SDS011;19143;59.322;14.502;2023-09-18T00:27:11;1.40;;;0.53;;
32790;SDS011;19143;59.322;14.502;2023-09-18T00:29:37;2.17;;;1.00;;
32790;SDS011;19143;59.322;14.502;2023-09-18T00:32:04;2.53;;;1.03;;
32790;SDS011;19143;59.322;14.502;2023-09-18T00:34:31;2.10;;;0.70;;
32790;SDS011;19143;59.322;14.502;2023-09-18T00:36:58;0.73;;;0.73;;
32790;SDS011;19143;59.322;14.502;2023-09-18T00:39:26;1.53;;;1.00;;
32790;SDS011;19143;59.322;14.502;2023-09-18T00:41:53;0.77;;;0.77;;
32790;SDS011;19143;59.322;14.502;2023-09-18T00:44:20;1.03;;;0.90;;
32790;SDS011;19143;59.322;14.502;2023-09-18T00:46:46;0.90;;;0.90;;
32790;SDS011;19143;59.322;14.502;2023-09-18T00:49:13;3.77;;;0.80;;
32790;SDS011;19143;59.322;14.502;2023-09-18T00:51:40;1.40;;;0.90;;
32790;SDS011;19143;59.322;14.502;2023-09-18T00:54:06;3.43;;;1.00;;
32790;SDS011;19143;59.322;14.502;2023-09-18T00:56:34;0.87;;;0.80;;
32790;SDS011;19143;59.322;14.502;2023-09-18T00:59:01;1.00;;;1.00;;
32790;SDS011;19143;59.322;14.502;2023-09-18T01:01:29;7.63;;;0.90;;
32790;SDS011;19143;59.322;14.502;2023-09-18T01:03:55;0.90;;;0.90;;
32790;SDS011;19143;59.322;14.502;2023-09-18T01:06:24;0.70;;;0.70;;
32790;SDS011;19143;59.322;14.502;2023-09-18T01:08:53;0.83;;;0.83;;
32790;SDS011;19143;59.322;14.502;2023-09-18T01:11:21;3.33;;;0.90;;
32790;SDS011;19143;59.322;14.502;2023-09-18T01:13:51;0.60;;;0.60;;
32790;SDS011;19143;59.322;14.502;2023-09-18T01:16:22;2.10;;;1.00;;
32790;SDS011;19143;59.322;14.502;2023-09-18T01:18:50;4.10;;;0.67;;
32790;SDS011;19143;59.322;14.502;2023-09-18T01:21:18;0.80;;;0.80;;
32790;SDS011;19143;59.322;14.502;2023-09-18T01:23:46;0.73;;;0.73;;
32790;SDS011;19143;59.322;14.502;2023-09-18T01:26:14;1.10;;;1.00;;
32790;SDS011;19143;59.322;14.502;2023-09-18T01:28:40;0.83;;;0.70;;
32790;SDS011;19143;59.322;14.502;2023-09-18T01:31:07;0.70;;;0.70;;
32790;SDS011;19143;59.322;14.502;2023-09-18T01:33:34;0.80;;;0.80;;
32790;SDS011;19143;59.322;14.502;2023-09-18T01:36:00;2.50;;;1.00;;
32790;SDS011;19143;59.322;14.502;2023-09-18T01:38:27;0.77;;;0.77;;
32790;SDS011;19143;59.322;14.502;2023-09-18T01:40:56;4.40;;;0.90;;
32790;SDS011;19143;59.322;14.502;2023-09-18T01:43:23;2.60;;;0.90;;
32790;SDS011;19143;59.322;14.502;2023-09-18T01:45:49;0.83;;;0.83;;
32790;SDS011;19143;59.322;14.502;2023-09-18T01:48:16;0.70;;;0.70;;
32790;SDS011;19143;59.322;14.502;2023-09-18T01:50:43;0.80;;;0.80;;
32790;SDS011;19143;59.322;14.502;2023-09-18T01:53:10;0.97;;;0.97;;
32790;SDS011;19143;59.322;14.502;2023-09-18T01:55:36;0.93;;;0.93;;
32790;SDS011;19143;59.322;14.502;2023-09-18T01:58:04;1.27;;;0.90;;
32790;SDS011;19143;59.322;14.502;2023-09-18T02:00:31;0.90;;;0.90;;
32790;SDS011;19143;59.322;14.502;2023-09-18T02:02:57;0.77;;;0.77;;
32790;SDS011;19143;59.322;14.502;2023-09-18T02:05:24;1.10;;;1.00;;
32790;SDS011;19143;59.322;14.502;2023-09-18T02:07:50;0.80;;;0.80;;
32790;SDS011;19143;59.322;14.502;2023-09-18T02:10:17;5.13;;;1.10;;
32790;SDS011;19143;59.322;14.502;2023-09-18T02:12:44;1.80;;;1.00;;
32790;SDS011;19143;59.322;14.502;2023-09-18T02:15:12;2.00;;;0.90;;
32790;SDS011;19143;59.322;14.502;2023-09-18T02:17:38;0.73;;;0.73;;
32790;SDS011;19143;59.322;14.502;2023-09-18T02:20:05;1.33;;;0.90;;
32790;SDS011;19143;59.322;14.502;2023-09-18T02:22:36;0.80;;;0.80;;
32790;SDS011;19143;59.322;14.502;2023-09-18T02:25:03;2.13;;;0.87;;
32790;SDS011;19143;59.322;14.502;2023-09-18T02:27:30;6.33;;;1.00;;
32790;SDS011;19143;59.322;14.502;2023-09-18T02:29:56;1.13;;;1.07;;
32790;SDS011;19143;59.322;14.502;2023-09-18T02:32:24;0.90;;;0.90;;
32790;SDS011;19143;59.322;14.502;2023-09-18T02:34:51;1.70;;;1.47;;
32790;SDS011;19143;59.322;14.502;2023-09-18T02:37:17;5.73;;;1.27;;
32790;SDS011;19143;59.322;14.502;2023-09-18T02:39:44;4.60;;;1.00;;
32790;SDS011;19143;59.322;14.502;2023-09-18T02:42:10;1.03;;;0.97;;
32790;SDS011;19143;59.322;14.502;2023-09-18T02:44:37;1.00;;;0.90;;
32790;SDS011;19143;59.322;14.502;2023-09-18T02:47:04;1.97;;;0.87;;
32790;SDS011;19143;59.322;14.502;2023-09-18T02:49:31;1.17;;;0.80;;
32790;SDS011;19143;59.322;14.502;2023-09-18T02:51:58;0.70;;;0.70;;
32790;SDS011;19143;59.322;14.502;2023-09-18T02:54:24;1.00;;;1.00;;
32790;SDS011;19143;59.322;14.502;2023-09-18T02:56:51;0.90;;;0.90;;
32790;SDS011;19143;59.322;14.502;2023-09-18T02:59:18;0.80;;;0.80;;
32790;SDS011;19143;59.322;14.502;2023-09-18T03:01:45;1.00;;;1.00;;
32790;SDS011;19143;59.322;14.502;2023-09-18T03:04:11;2.53;;;1.00;;
32790;SDS011;19143;59.322;14.502;2023-09-18T03:06:39;0.77;;;0.70;;
32790;SDS011;19143;59.322;14.502;2023-09-18T03:09:06;0.97;;;0.97;;
32790;SDS011;19143;59.322;14.502;2023-09-18T03:11:32;3.23;;;0.93;;
32790;SDS011;19143;59.322;14.502;2023-09-18T03:13:59;3.03;;;1.20;;
32790;SDS011;19143;59.322;14.502;2023-09-18T03:16:25;2.13;;;0.80;;
32790;SDS011;19143;59.322;14.502;2023-09-18T03:18:52;1.33;;;1.07;;
32790;SDS011;19143;59.322;14.502;2023-09-18T03:21:18;1.13;;;1.07;;
32790;SDS011;19143;59.322;14.502;2023-09-18T03:23:46;1.00;;;1.00;;
32790;SDS011;19143;59.322;14.502;2023-09-18T03:26:13;3.40;;;1.10;;
32790;SDS011;19143;59.322;14.502;2023-09-18T03:28:39;1.10;;;1.10;;
32790;SDS011;19143;59.322;14.502;2023-09-18T03:31:06;1.03;;;0.97;;
32790;SDS011;19143;59.322;14.502;2023-09-18T03:33:32;1.20;;;1.10;;
32790;SDS011;19143;59.322;14.502;2023-09-18T03:35:59;2.07;;;1.57;;
32790;SDS011;19143;59.322;14.502;2023-09-18T03:38:25;3.23;;;1.20;;
32790;SDS011;19143;59.322;14.502;2023-09-18T03:40:53;1.20;;;1.17;;
32790;SDS011;19143;59.322;14.502;2023-09-18T03:43:20;1.10;;;1.10;;
32790;SDS011;19143;59.322;14.502;2023-09-18T03:45:46;0.87;;;0.87;;
32790;SDS011;19143;59.322;14.502;2023-09-18T03:48:13;2.20;;;1.13;;
32790;SDS011;19143;59.322;14.502;2023-09-18T03:50:40;3.20;;;1.20;;
32790;SDS011;19143;59.322;14.502;2023-09-18T03:53:06;0.93;;;0.93;;
32790;SDS011;19143;59.322;14.502;2023-09-18T03:55:32;1.60;;;1.20;;
32790;SDS011;19143;59.322;14.502;2023-09-18T03:58:01;2.67;;;0.93;;
32790;SDS011;19143;59.322;14.502;2023-09-18T04:00:28;1.10;;;1.00;;
32790;SDS011;19143;59.322;14.502;2023-09-18T04:02:54;1.10;;;1.10;;
32790;SDS011;19143;59.322;14.502;2023-09-18T04:05:21;4.33;;;1.30;;
32790;SDS011;19143;59.322;14.502;2023-09-18T04:07:48;2.00;;;1.20;;
32790;SDS011;19143;59.322;14.502;2023-09-18T04:10:14;2.13;;;1.20;;
32790;SDS011;19143;59.322;14.502;2023-09-18T04:12:44;1.20;;;1.10;;
32790;SDS011;19143;59.322;14.502;2023-09-18T04:15:14;1.50;;;1.13;;
32790;SDS011;19143;59.322;14.502;2023-09-18T04:17:42;2.63;;;0.93;;
32790;SDS011;19143;59.322;14.502;2023-09-18T04:20:09;1.30;;;1.30;;
32790;SDS011;19143;59.322;14.502;2023-09-18T04:22:36;1.97;;;1.30;;
32790;SDS011;19143;59.322;14.502;2023-09-18T04:25:02;1.80;;;1.03;;
32790;SDS011;19143;59.322;14.502;2023-09-18T04:27:31;5.00;;;1.30;;
32790;SDS011;19143;59.322;14.502;2023-09-18T04:29:57;2.37;;;1.23;;
32790;SDS011;19143;59.322;14.502;2023-09-18T04:32:28;1.60;;;1.30;;
32790;SDS011;19143;59.322;14.502;2023-09-18T04:34:56;1.80;;;1.50;;
32790;SDS011;19143;59.322;14.502;2023-09-18T04:37:22;1.67;;;1.57;;
32790;SDS011;19143;59.322;14.502;2023-09-18T04:39:49;1.90;;;1.40;;
32790;SDS011;19143;59.322;14.502;2023-09-18T04:42:16;1.50;;;1.40;;
32790;SDS011;19143;59.322;14.502;2023-09-18T04:44:43;2.17;;;1.30;;
32790;SDS011;19143;59.322;14.502;2023-09-18T04:47:10;1.60;;;1.50;;
32790;SDS011;19143;59.322;14.502;2023-09-18T04:49:37;4.80;;;1.50;;
32790;SDS011;19143;59.322;14.502;2023-09-18T04:52:12;1.57;;;1.30;;
32790;SDS011;19143;59.322;14.502;2023-09-18T04:54:39;2.80;;;1.40;;
32790;SDS011;19143;59.322;14.502;2023-09-18T04:57:05;1.70;;;1.20;;
32790;SDS011;19143;59.322;14.502;2023-09-18T04:59:35;2.43;;;1.17;;
32790;SDS011;19143;59.322;14.502;2023-09-18T05:02:02;1.80;;;1.70;;
32790;SDS011;19143;59.322;14.502;2023-09-18T05:04:29;1.73;;;1.60;;
32790;SDS011;19143;59.322;14.502;2023-09-18T05:06:57;1.43;;;1.23;;
32790;SDS011;19143;59.322;14.502;2023-09-18T05:09:26;1.47;;;1.40;;
32790;SDS011;19143;59.322;14.502;2023-09-18T05:11:53;4.77;;;1.30;;
32790;SDS011;19143;59.322;14.502;2023-09-18T05:14:19;1.70;;;1.13;;
32790;SDS011;19143;59.322;14.502;2023-09-18T05:16:46;1.97;;;1.20;;
32790;SDS011;19143;59.322;14.502;2023-09-18T05:19:12;1.37;;;1.27;;
32790;SDS011;19143;59.322;14.502;2023-09-18T05:21:39;2.80;;;1.37;;
32790;SDS011;19143;59.322;14.502;2023-09-18T05:24:10;4.53;;;1.57;;
32790;SDS011;19143;59.322;14.502;2023-09-18T05:26:37;1.13;;;1.13;;
32790;SDS011;19143;59.322;14.502;2023-09-18T05:29:03;1.10;;;1.10;;
32790;SDS011;19143;59.322;14.502;2023-09-18T05:31:30;4.23;;;1.17;;
32790;SDS011;19143;59.322;14.502;2023-09-18T05:33:57;1.73;;;1.13;;
32790;SDS011;19143;59.322;14.502;2023-09-18T05:36:26;5.17;;;1.20;;
32790;SDS011;19143;59.322;14.502;2023-09-18T05:38:53;1.47;;;1.40;;
32790;SDS011;19143;59.322;14.502;2023-09-18T05:41:21;1.17;;;1.17;;
32790;SDS011;19143;59.322;14.502;2023-09-18T05:43:50;3.23;;;1.20;;
32790;SDS011;19143;59.322;14.502;2023-09-18T05:46:17;1.40;;;1.30;;
32790;SDS011;19143;59.322;14.502;2023-09-18T05:48:43;2.27;;;1.17;;
32790;SDS011;19143;59.322;14.502;2023-09-18T05:51:10;3.70;;;1.10;;
32790;SDS011;19143;59.322;14.502;2023-09-18T05:53:37;1.00;;;1.00;;
32790;SDS011;19143;59.322;14.502;2023-09-18T05:56:03;2.00;;;1.17;;
32790;SDS011;19143;59.322;14.502;2023-09-18T05:58:32;1.33;;;1.10;;
32790;SDS011;19143;59.322;14.502;2023-09-18T06:00:59;3.63;;;0.97;;
32790;SDS011;19143;59.322;14.502;2023-09-18T06:03:26;2.47;;;1.40;;
32790;SDS011;19143;59.322;14.502;2023-09-18T06:05:55;2.17;;;1.00;;
32790;SDS011;19143;59.322;14.502;2023-09-18T06:08:21;6.10;;;1.20;;
32790;SDS011;19143;59.322;14.502;2023-09-18T06:10:51;2.70;;;1.27;;
32790;SDS011;19143;59.322;14.502;2023-09-18T06:13:17;2.63;;;1.40;;
32790;SDS011;19143;59.322;14.502;2023-09-18T06:15:45;1.23;;;0.90;;
32790;SDS011;19143;59.322;14.502;2023-09-18T06:18:12;1.60;;;1.30;;
32790;SDS011;19143;59.322;14.502;2023-09-18T06:20:39;2.93;;;1.07;;
32790;SDS011;19143;59.322;14.502;2023-09-18T07:17:37;0.90;;;0.90;;
32790;SDS011;19143;59.322;14.502;2023-09-18T07:20:04;1.00;;;0.90;;
32790;SDS011;19143;59.322;14.502;2023-09-18T07:22:39;2.40;;;1.20;;
32790;SDS011;19143;59.322;14.502;2023-09-18T07:25:06;4.03;;;1.00;;
32790;SDS011;19143;59.322;14.502;2023-09-18T07:27:33;2.30;;;0.73;;
32790;SDS011;19143;59.322;14.502;2023-09-18T07:30:01;0.80;;;0.80;;
32790;SDS011;19143;59.322;14.502;2023-09-18T07:32:29;1.20;;;1.10;;
32790;SDS011;19143;59.322;14.502;2023-09-18T07:34:58;0.83;;;0.83;;
32790;SDS011;19143;59.322;14.502;2023-09-18T07:37:27;1.07;;;1.07;;
32790;SDS011;19143;59.322;14.502;2023-09-18T07:39:54;1.17;;;0.80;;
32790;SDS011;19143;59.322;14.502;2023-09-18T07:42:23;1.40;;;0.80;;
32790;SDS011;19143;59.322;14.502;2023-09-18T07:44:50;2.20;;;0.90;;
32790;SDS011;19143;59.322;14.502;2023-09-18T07:47:21;0.90;;;0.90;;
32790;SDS011;19143;59.322;14.502;2023-09-18T07:49:53;1.40;;;1.00;;
32790;SDS011;19143;59.322;14.502;2023-09-18T08:01:35;2.10;;;0.90;;
32790;SDS011;19143;59.322;14.502;2023-09-18T08:04:02;0.70;;;0.70;;
32790;SDS011;19143;59.322;14.502;2023-09-18T08:06:39;3.13;;;0.83;;
32790;SDS011;19143;59.322;14.502;2023-09-18T08:09:15;5.07;;;1.27;;
32790;SDS011;19143;59.322;14.502;2023-09-18T08:11:42;1.00;;;0.90;;
32790;SDS011;19143;59.322;14.502;2023-09-18T08:14:10;1.43;;;0.77;;
32790;SDS011;19143;59.322;14.502;2023-09-18T08:19:30;1.03;;;0.90;;
32790;SDS011;19143;59.322;14.502;2023-09-18T08:22:10;2.73;;;1.00;;
32790;SDS011;19143;59.322;14.502;2023-09-18T08:24:47;1.47;;;1.00;;
32790;SDS011;19143;59.322;14.502;2023-09-18T08:27:19;2.63;;;0.93;;
32790;SDS011;19143;59.322;14.502;2023-09-18T08:30:07;0.83;;;0.80;;
32790;SDS011;19143;59.322;14.502;2023-09-18T08:32:41;2.00;;;1.00;;
32790;SDS011;19143;59.322;14.502;2023-09-18T08:38:13;3.30;;;1.03;;
32790;SDS011;19143;59.322;14.502;2023-09-18T08:40:54;3.90;;;1.10;;
32790;SDS011;19143;59.322;14.502;2023-09-18T08:43:25;0.70;;;0.63;;
32790;SDS011;19143;59.322;14.502;2023-09-18T08:45:56;0.90;;;0.90;;
32790;SDS011;19143;59.322;14.502;2023-09-18T08:48:38;2.33;;;0.83;;
32790;SDS011;19143;59.322;14.502;2023-09-18T08:51:19;0.90;;;0.90;;
32790;SDS011;19143;59.322;14.502;2023-09-18T08:53:52;8.07;;;1.10;;
32790;SDS011;19143;59.322;14.502;2023-09-18T08:56:19;2.67;;;0.67;;
32790;SDS011;19143;59.322;14.502;2023-09-18T08:58:47;0.83;;;0.83;;
32790;SDS011;19143;59.322;14.502;2023-09-18T09:01:18;1.90;;;1.00;;
32790;SDS011;19143;59.322;14.502;2023-09-18T09:03:50;0.90;;;0.90;;
32790;SDS011;19143;59.322;14.502;2023-09-18T09:06:18;3.07;;;0.90;;
32790;SDS011;19143;59.322;14.502;2023-09-18T09:08:55;3.40;;;0.90;;
32790;SDS011;19143;59.322;14.502;2023-09-18T09:11:28;1.20;;;1.10;;
32790;SDS011;19143;59.322;14.502;2023-09-18T09:14:08;1.43;;;0.90;;
32790;SDS011;19143;59.322;14.502;2023-09-18T09:16:38;2.77;;;1.00;;
32790;SDS011;19143;59.322;14.502;2023-09-18T09:19:09;4.73;;;0.97;;
32790;SDS011;19143;59.322;14.502;2023-09-18T09:21:54;1.00;;;0.90;;
32790;SDS011;19143;59.322;14.502;2023-09-18T09:24:52;1.43;;;1.00;;
32790;SDS011;19143;59.322;14.502;2023-09-18T09:27:42;3.53;;;1.30;;
32790;SDS011;19143;59.322;14.502;2023-09-18T09:30:22;2.63;;;1.03;;
32790;SDS011;19143;59.322;14.502;2023-09-18T09:32:49;5.87;;;0.90;;
32790;SDS011;19143;59.322;14.502;2023-09-18T09:35:24;1.00;;;1.00;;
32790;SDS011;19143;59.322;14.502;2023-09-18T09:37:52;3.07;;;0.90;;
32790;SDS011;19143;59.322;14.502;2023-09-18T09:40:22;0.73;;;0.73;;
32790;SDS011;19143;59.322;14.502;2023-09-18T09:42:50;0.90;;;0.90;;
32790;SDS011;19143;59.322;14.502;2023-09-18T09:45:19;0.77;;;0.77;;
32790;SDS011;19143;59.322;14.502;2023-09-18T09:47:47;2.20;;;0.80;;
32790;SDS011;19143;59.322;14.502;2023-09-18T09:50:15;1.67;;;0.90;;
32790;SDS011;19143;59.322;14.502;2023-09-18T09:52:50;1.77;;;0.80;;
32790;SDS011;19143;59.322;14.502;2023-09-18T09:55:18;4.23;;;1.60;;
32790;SDS011;19143;59.322;14.502;2023-09-18T09:57:49;1.03;;;0.90;;
32790;SDS011;19143;59.322;14.502;2023-09-18T10:00:18;0.80;;;0.80;;
32790;SDS011;19143;59.322;14.502;2023-09-18T10:03:04;2.57;;;1.00;;
32790;SDS011;19143;59.322;14.502;2023-09-18T10:05:47;1.67;;;1.00;;
32790;SDS011;19143;59.322;14.502;2023-09-18T10:08:44;2.33;;;0.90;;
32790;SDS011;19143;59.322;14.502;2023-09-18T10:11:32;1.93;;;1.00;;
32790;SDS011;19143;59.322;14.502;2023-09-18T10:29:36;1.30;;;0.60;;
32790;SDS011;19143;59.322;14.502;2023-09-18T10:32:05;5.30;;;1.13;;
32790;SDS011;19143;59.322;14.502;2023-09-18T10:34:46;0.90;;;0.90;;
32790;SDS011;19143;59.322;14.502;2023-09-18T10:37:28;1.07;;;0.87;;
32790;SDS011;19143;59.322;14.502;2023-09-18T10:40:14;2.33;;;0.90;;
32790;SDS011;19143;59.322;14.502;2023-09-18T10:42:51;1.77;;;0.77;;
32790;SDS011;19143;59.322;14.502;2023-09-18T10:45:26;2.97;;;0.97;;
32790;SDS011;19143;59.322;14.502;2023-09-18T10:47:56;1.00;;;1.00;;
32790;SDS011;19143;59.322;14.502;2023-09-18T10:50:25;1.77;;;0.83;;
32790;SDS011;19143;59.322;14.502;2023-09-18T10:52:53;1.93;;;1.10;;
32790;SDS011;19143;59.322;14.502;2023-09-18T10:55:25;1.50;;;0.90;;
32790;SDS011;19143;59.322;14.502;2023-09-18T10:57:58;1.90;;;0.90;;
32790;SDS011;19143;59.322;14.502;2023-09-18T11:06:12;3.00;;;0.80;;
32790;SDS011;19143;59.322;14.502;2023-09-18T11:09:02;1.03;;;1.00;;
32790;SDS011;19143;59.322;14.502;2023-09-18T11:11:43;1.87;;;1.00;;
32790;SDS011;19143;59.322;14.502;2023-09-18T11:14:29;0.90;;;0.80;;
32790;SDS011;19143;59.322;14.502;2023-09-18T11:17:34;0.80;;;0.73;;
32790;SDS011;19143;59.322;14.502;2023-09-18T11:20:16;1.57;;;0.80;;
32790;SDS011;19143;59.322;14.502;2023-09-18T11:22:55;6.20;;;0.77;;
32790;SDS011;19143;59.322;14.502;2023-09-18T11:28:22;1.10;;;1.00;;
32790;SDS011;19143;59.322;14.502;2023-09-18T11:30:59;0.90;;;0.90;;
32790;SDS011;19143;59.322;14.502;2023-09-18T11:33:43;2.07;;;1.00;;
32790;SDS011;19143;59.322;14.502;2023-09-18T11:36:28;2.50;;;1.07;;
32790;SDS011;19143;59.322;14.502;2023-09-18T11:41:57;1.30;;;0.90;;
32790;SDS011;19143;59.322;14.502;2023-09-18T11:48:02;2.07;;;0.80;;
32790;SDS011;19143;59.322;14.502;2023-09-18T11:50:37;1.53;;;0.97;;
32790;SDS011;19143;59.322;14.502;2023-09-18T11:53:11;3.20;;;1.00;;
32790;SDS011;19143;59.322;14.502;2023-09-18T11:55:40;1.53;;;0.90;;
32790;SDS011;19143;59.322;14.502;2023-09-18T12:01:27;1.40;;;1.00;;
32790;SDS011;19143;59.322;14.502;2023-09-18T12:04:00;4.87;;;2.27;;
32790;SDS011;19143;59.322;14.502;2023-09-18T12:06:38;0.90;;;0.90;;
32790;SDS011;19143;59.322;14.502;2023-09-18T12:09:14;2.80;;;0.87;;
32790;SDS011;19143;59.322;14.502;2023-09-18T12:11:59;1.33;;;0.93;;
32790;SDS011;19143;59.322;14.502;2023-09-18T12:14:29;1.80;;;0.90;;
32790;SDS011;19143;59.322;14.502;2023-09-18T12:16:58;1.40;;;1.00;;
32790;SDS011;19143;59.322;14.502;2023-09-18T12:19:25;2.57;;;0.90;;
32790;SDS011;19143;59.322;14.502;2023-09-18T12:21:51;1.23;;;0.90;;
32790;SDS011;19143;59.322;14.502;2023-09-18T12:24:20;5.47;;;0.87;;
32790;SDS011;19143;59.322;14.502;2023-09-18T12:26:49;3.17;;;1.10;;
32790;SDS011;19143;59.322;14.502;2023-09-18T12:29:17;4.03;;;1.20;;
32790;SDS011;19143;59.322;14.502;2023-09-18T12:31:43;1.63;;;0.90;;
32790;SDS011;19143;59.322;14.502;2023-09-18T12:34:18;3.57;;;1.27;;
32790;SDS011;19143;59.322;14.502;2023-09-18T12:48:12;0.90;;;0.90;;
32790;SDS011;19143;59.322;14.502;2023-09-18T12:50:52;0.90;;;0.90;;
32790;SDS011;19143;59.322;14.502;2023-09-18T12:53:21;2.30;;;0.80;;
32790;SDS011;19143;59.322;14.502;2023-09-18T12:55:48;4.00;;;1.10;;
32790;SDS011;19143;59.322;14.502;2023-09-18T12:58:34;2.87;;;0.93;;
32790;SDS011;19143;59.322;14.502;2023-09-18T13:01:03;6.13;;;1.07;;
32790;SDS011;19143;59.322;14.502;2023-09-18T13:03:34;3.43;;;0.97;;
32790;SDS011;19143;59.322;14.502;2023-09-18T13:06:10;0.70;;;0.70;;
32790;SDS011;19143;59.322;14.502;2023-09-18T13:08:37;2.77;;;1.00;;
32790;SDS011;19143;59.322;14.502;2023-09-18T13:11:04;2.47;;;0.97;;
32790;SDS011;19143;59.322;14.502;2023-09-18T13:13:32;7.00;;;1.10;;
32790;SDS011;19143;59.322;14.502;2023-09-18T13:15:58;4.63;;;1.40;;
32790;SDS011;19143;59.322;14.502;2023-09-18T13:18:25;0.97;;;0.97;;
32790;SDS011;19143;59.322;14.502;2023-09-18T13:20:52;3.23;;;0.73;;
32790;SDS011;19143;59.322;14.502;2023-09-18T13:23:20;7.57;;;1.20;;
32790;SDS011;19143;59.322;14.502;2023-09-18T13:25:58;2.80;;;1.03;;
32790;SDS011;19143;59.322;14.502;2023-09-18T13:28:24;3.87;;;1.10;;
32790;SDS011;19143;59.322;14.502;2023-09-18T13:30:52;1.13;;;1.13;;
32790;SDS011;19143;59.322;14.502;2023-09-18T13:33:20;1.87;;;1.10;;
32790;SDS011;19143;59.322;14.502;2023-09-18T13:35:47;1.20;;;1.10;;
32790;SDS011;19143;59.322;14.502;2023-09-18T13:38:13;1.00;;;1.00;;
32790;SDS011;19143;59.322;14.502;2023-09-18T13:40:41;1.63;;;0.90;;
32790;SDS011;19143;59.322;14.502;2023-09-18T13:43:09;4.10;;;1.10;;
32790;SDS011;19143;59.322;14.502;2023-09-18T13:45:36;2.73;;;0.90;;
32790;SDS011;19143;59.322;14.502;2023-09-18T13:48:03;1.67;;;0.80;;
32790;SDS011;19143;59.322;14.502;2023-09-18T13:50:29;4.60;;;0.93;;
32790;SDS011;19143;59.322;14.502;2023-09-18T13:52:56;2.40;;;1.07;;
32790;SDS011;19143;59.322;14.502;2023-09-18T13:55:22;4.73;;;1.30;;
32790;SDS011;19143;59.322;14.502;2023-09-18T13:57:51;5.40;;;1.07;;
32790;SDS011;19143;59.322;14.502;2023-09-18T14:00:17;1.70;;;1.20;;
32790;SDS011;19143;59.322;14.502;2023-09-18T14:02:44;1.70;;;0.77;;
32790;SDS011;19143;59.322;14.502;2023-09-18T14:05:11;1.10;;;0.93;;
32790;SDS011;19143;59.322;14.502;2023-09-18T14:07:38;10.63;;;1.10;;
32790;SDS011;19143;59.322;14.502;2023-09-18T14:10:05;0.90;;;0.80;;
32790;SDS011;19143;59.322;14.502;2023-09-18T14:12:32;1.00;;;1.00;;
32790;SDS011;19143;59.322;14.502;2023-09-18T14:15:00;1.17;;;1.10;;
32790;SDS011;19143;59.322;14.502;2023-09-18T14:17:27;1.07;;;0.87;;
32790;SDS011;19143;59.322;14.502;2023-09-18T14:19:53;1.10;;;0.90;;
32790;SDS011;19143;59.322;14.502;2023-09-18T14:22:20;5.23;;;0.90;;
32790;SDS011;19143;59.322;14.502;2023-09-18T14:24:46;4.40;;;1.10;;
32790;SDS011;19143;59.322;14.502;2023-09-18T14:27:13;1.37;;;1.10;;
32790;SDS011;19143;59.322;14.502;2023-09-18T14:29:39;5.90;;;1.20;;
32790;SDS011;19143;59.322;14.502;2023-09-18T14:32:07;1.77;;;1.03;;
32790;SDS011;19143;59.322;14.502;2023-09-18T14:34:34;0.90;;;0.90;;
32790;SDS011;19143;59.322;14.502;2023-09-18T14:37:15;1.80;;;0.97;;
32790;SDS011;19143;59.322;14.502;2023-09-18T14:39:41;2.50;;;1.10;;
32790;SDS011;19143;59.322;14.502;2023-09-18T14:42:08;2.00;;;1.30;;
32790;SDS011;19143;59.322;14.502;2023-09-18T14:44:35;1.07;;;1.00;;
32790;SDS011;19143;59.322;14.502;2023-09-18T14:47:05;8.37;;;1.13;;
32790;SDS011;19143;59.322;14.502;2023-09-18T14:49:33;5.30;;;1.20;;
32790;SDS011;19143;59.322;14.502;2023-09-18T14:52:00;1.63;;;1.20;;
32790;SDS011;19143;59.322;14.502;2023-09-18T14:54:26;2.13;;;1.13;;
32790;SDS011;19143;59.322;14.502;2023-09-18T14:56:55;7.20;;;1.40;;
32790;SDS011;19143;59.322;14.502;2023-09-18T14:59:23;3.37;;;1.50;;
32790;SDS011;19143;59.322;14.502;2023-09-18T15:01:50;2.87;;;1.17;;
32790;SDS011;19143;59.322;14.502;2023-09-18T15:04:17;0.87;;;0.87;;
32790;SDS011;19143;59.322;14.502;2023-09-18T15:06:48;1.33;;;1.10;;
32790;SDS011;19143;59.322;14.502;2023-09-18T15:09:15;1.50;;;1.17;;
32790;SDS011;19143;59.322;14.502;2023-09-18T15:11:52;1.73;;;1.10;;
32790;SDS011;19143;59.322;14.502;2023-09-18T15:14:22;3.97;;;1.30;;
32790;SDS011;19143;59.322;14.502;2023-09-18T15:19:45;2.83;;;1.10;;
32790;SDS011;19143;59.322;14.502;2023-09-18T15:22:15;1.87;;;1.20;;
32790;SDS011;19143;59.322;14.502;2023-09-18T15:24:42;1.73;;;1.40;;
32790;SDS011;19143;59.322;14.502;2023-09-18T15:27:08;4.10;;;1.20;;
32790;SDS011;19143;59.322;14.502;2023-09-18T15:29:35;4.20;;;1.43;;
32790;SDS011;19143;59.322;14.502;2023-09-18T15:32:08;2.77;;;1.60;;
32790;SDS011;19143;59.322;14.502;2023-09-18T15:34:34;2.37;;;1.53;;
32790;SDS011;19143;59.322;14.502;2023-09-18T15:37:01;1.87;;;1.63;;
32790;SDS011;19143;59.322;14.502;2023-09-18T15:39:30;3.77;;;1.83;;
32790;SDS011;19143;59.322;14.502;2023-09-18T15:41:57;3.37;;;1.47;;
32790;SDS011;19143;59.322;14.502;2023-09-18T15:44:24;2.40;;;1.40;;
32790;SDS011;19143;59.322;14.502;2023-09-18T15:46:50;1.67;;;1.57;;
32790;SDS011;19143;59.322;14.502;2023-09-18T15:49:17;5.27;;;1.53;;
32790;SDS011;19143;59.322;14.502;2023-09-18T15:51:43;1.70;;;1.60;;
32790;SDS011;19143;59.322;14.502;2023-09-18T15:54:10;8.40;;;1.90;;
32790;SDS011;19143;59.322;14.502;2023-09-18T15:56:38;3.50;;;1.90;;
32790;SDS011;19143;59.322;14.502;2023-09-18T15:59:05;2.57;;;1.70;;
32790;SDS011;19143;59.322;14.502;2023-09-18T16:01:33;3.60;;;1.83;;
32790;SDS011;19143;59.322;14.502;2023-09-18T16:04:03;2.83;;;1.70;;
32790;SDS011;19143;59.322;14.502;2023-09-18T16:06:29;4.73;;;1.70;;
32790;SDS011;19143;59.322;14.502;2023-09-18T16:08:56;3.87;;;1.80;;
32790;SDS011;19143;59.322;14.502;2023-09-18T16:11:25;2.17;;;1.70;;
32790;SDS011;19143;59.322;14.502;2023-09-18T16:13:53;2.33;;;2.10;;
32790;SDS011;19143;59.322;14.502;2023-09-18T16:16:21;3.40;;;1.80;;
32790;SDS011;19143;59.322;14.502;2023-09-18T16:18:47;3.47;;;1.73;;
32790;SDS011;19143;59.322;14.502;2023-09-18T16:21:15;3.80;;;1.80;;
32790;SDS011;19143;59.322;14.502;2023-09-18T16:23:41;2.20;;;1.90;;
32790;SDS011;19143;59.322;14.502;2023-09-18T16:26:08;3.60;;;1.70;;
32790;SDS011;19143;59.322;14.502;2023-09-18T16:28:35;3.80;;;1.63;;
32790;SDS011;19143;59.322;14.502;2023-09-18T16:31:03;2.37;;;1.83;;
32790;SDS011;19143;59.322;14.502;2023-09-18T16:33:33;2.07;;;1.80;;
32790;SDS011;19143;59.322;14.502;2023-09-18T16:35:59;3.70;;;1.60;;
32790;SDS011;19143;59.322;14.502;2023-09-18T16:38:28;4.40;;;2.07;;
32790;SDS011;19143;59.322;14.502;2023-09-18T16:43:36;2.20;;;2.00;;
32790;SDS011;19143;59.322;14.502;2023-09-18T16:46:05;6.83;;;2.13;;